sensor_id;sensor_type;location;lat;lon;timestamp;pressure;altitude;pressure_sealevel;temperature;humidity
10978;BME280;5542;48.272;10.794;2023-04-02T00:02:34;94923.44;;;6.99;79.84
10978;BME280;5542;48.272;10.794;2023-04-02T00:05:36;94932.97;;;6.93;79.85
10978;BME280;5542;48.272;10.794;2023-04-02T00:08:19;94932.84;;;6.88;80.18
10978;BME280;5542;48.272;10.794;2023-04-02T00:10:47;94930.91;;;6.84;80.21
10978;BME280;5542;48.272;10.794;2023-04-02T00:13:22;94930.63;;;6.74;80.37
10978;BME280;5542;48.272;10.794;2023-04-02T00:15:52;94929.84;;;6.73;80.53
10978;BME280;5542;48.272;10.794;2023-04-02T00:18:22;94928.28;;;6.84;80.27
10978;BME280;5542;48.272;10.794;2023-04-02T00:20:52;94938.94;;;6.82;80.22
10978;BME280;5542;48.272;10.794;2023-04-02T00:23:21;94937.94;;;6.83;80.16
10978;BME280;5542;48.272;10.794;2023-04-02T00:25:48;94942.69;;;6.75;80.70
10978;BME280;5542;48.272;10.794;2023-04-02T00:28:17;94938.16;;;6.82;80.56
10978;BME280;5542;48.272;10.794;2023-04-02T00:30:47;94946.34;;;6.85;80.68
10978;BME280;5542;48.272;10.794;2023-04-02T00:33:16;94943.63;;;6.80;80.59
10978;BME280;5542;48.272;10.794;2023-04-02T00:35:44;94943.38;;;6.82;80.71
10978;BME280;5542;48.272;10.794;2023-04-02T00:38:18;94936.56;;;6.81;80.50
10978;BME280;5542;48.272;10.794;2023-04-02T00:40:45;94931.88;;;6.71;81.02
10978;BME280;5542;48.272;10.794;2023-04-02T00:43:13;94937.13;;;6.71;81.10
10978;BME280;5542;48.272;10.794;2023-04-02T00:45:42;94926.91;;;6.70;81.48
10978;BME280;5542;48.272;10.794;2023-04-02T00:48:23;94933.84;;;6.76;81.19
10978;BME280;5542;48.272;10.794;2023-04-02T00:50:52;94924.28;;;6.70;81.43
10978;BME280;5542;48.272;10.794;2023-04-02T00:53:24;94929.22;;;6.59;81.76
10978;BME280;5542;48.272;10.794;2023-04-02T00:55:53;94934.97;;;6.80;81.30
10978;BME280;5542;48.272;10.794;2023-04-02T00:58:25;94931.41;;;6.62;82.23
10978;BME280;5542;48.272;10.794;2023-04-02T01:00:53;94936.69;;;6.74;81.91
10978;BME280;5542;48.272;10.794;2023-04-02T01:03:30;94936.69;;;6.74;82.16
10978;BME280;5542;48.272;10.794;2023-04-02T01:06:03;94936.81;;;6.79;82.12
10978;BME280;5542;48.272;10.794;2023-04-02T01:08:56;94936.19;;;6.65;82.79
10978;BME280;5542;48.272;10.794;2023-04-02T01:11:38;94934.50;;;6.71;82.73
10978;BME280;5542;48.272;10.794;2023-04-02T01:14:16;94936.59;;;6.51;83.80
10978;BME280;5542;48.272;10.794;2023-04-02T01:16:50;94934.25;;;6.61;83.62
10978;BME280;5542;48.272;10.794;2023-04-02T01:19:41;94930.59;;;6.62;83.32
10978;BME280;5542;48.272;10.794;2023-04-02T01:22:20;94934.81;;;6.63;83.05
10978;BME280;5542;48.272;10.794;2023-04-02T01:24:54;94937.72;;;6.55;83.44
10978;BME280;5542;48.272;10.794;2023-04-02T01:27:24;94931.50;;;6.56;83.84
10978;BME280;5542;48.272;10.794;2023-04-02T01:29:56;94943.72;;;6.44;84.14
10978;BME280;5542;48.272;10.794;2023-04-02T01:32:25;94946.09;;;6.45;84.21
10978;BME280;5542;48.272;10.794;2023-04-02T01:34:53;94941.50;;;6.59;83.83
10978;BME280;5542;48.272;10.794;2023-04-02T01:37:33;94947.47;;;6.48;83.74
10978;BME280;5542;48.272;10.794;2023-04-02T01:40:12;94948.34;;;6.60;83.79
10978;BME280;5542;48.272;10.794;2023-04-02T01:42:44;94949.78;;;6.56;83.31
10978;BME280;5542;48.272;10.794;2023-04-02T01:45:18;94954.22;;;6.55;83.51
10978;BME280;5542;48.272;10.794;2023-04-02T01:47:46;94957.84;;;6.54;83.61
10978;BME280;5542;48.272;10.794;2023-04-02T01:50:21;94958.19;;;6.58;83.63
10978;BME280;5542;48.272;10.794;2023-04-02T01:52:50;94962.41;;;6.59;83.83
10978;BME280;5542;48.272;10.794;2023-04-02T01:55:23;94960.25;;;6.56;83.44
10978;BME280;5542;48.272;10.794;2023-04-02T01:57:52;94965.09;;;6.52;83.46
10978;BME280;5542;48.272;10.794;2023-04-02T02:00:21;94971.56;;;6.50;83.83
10978;BME280;5542;48.272;10.794;2023-04-02T02:02:50;94965.00;;;6.59;83.16
10978;BME280;5542;48.272;10.794;2023-04-02T02:05:19;94968.22;;;6.61;83.00
10978;BME280;5542;48.272;10.794;2023-04-02T02:07:47;94967.41;;;6.60;82.99
10978;BME280;5542;48.272;10.794;2023-04-02T02:10:16;94972.28;;;6.57;83.31
10978;BME280;5542;48.272;10.794;2023-04-02T02:12:43;94986.63;;;6.66;82.84
10978;BME280;5542;48.272;10.794;2023-04-02T02:15:14;94989.53;;;6.58;82.96
10978;BME280;5542;48.272;10.794;2023-04-02T02:17:43;94993.88;;;6.64;83.46
10978;BME280;5542;48.272;10.794;2023-04-02T02:20:11;94990.41;;;6.70;82.49
10978;BME280;5542;48.272;10.794;2023-04-02T02:22:40;94999.25;;;6.69;82.18
10978;BME280;5542;48.272;10.794;2023-04-02T02:25:12;94996.50;;;6.64;82.58
10978;BME280;5542;48.272;10.794;2023-04-02T02:27:47;95007.28;;;6.56;83.17
10978;BME280;5542;48.272;10.794;2023-04-02T02:30:16;95006.47;;;6.55;83.41
10978;BME280;5542;48.272;10.794;2023-04-02T02:32:52;95009.13;;;6.67;82.22
10978;BME280;5542;48.272;10.794;2023-04-02T02:35:23;95007.53;;;6.66;82.52
10978;BME280;5542;48.272;10.794;2023-04-02T02:37:55;95007.06;;;6.69;82.57
10978;BME280;5542;48.272;10.794;2023-04-02T02:40:26;95005.06;;;6.71;82.11
10978;BME280;5542;48.272;10.794;2023-04-02T02:42:58;95007.44;;;6.73;81.55
10978;BME280;5542;48.272;10.794;2023-04-02T02:45:28;95006.47;;;6.85;80.90
10978;BME280;5542;48.272;10.794;2023-04-02T02:48:01;95014.97;;;6.81;81.30
10978;BME280;5542;48.272;10.794;2023-04-02T02:50:30;95017.34;;;6.82;80.69
10978;BME280;5542;48.272;10.794;2023-04-02T02:52:59;95020.88;;;6.76;81.28
10978;BME280;5542;48.272;10.794;2023-04-02T02:55:29;95022.69;;;6.76;80.96
10978;BME280;5542;48.272;10.794;2023-04-02T02:57:59;95022.84;;;6.62;82.41
10978;BME280;5542;48.272;10.794;2023-04-02T03:00:29;95024.63;;;6.80;81.61
10978;BME280;5542;48.272;10.794;2023-04-02T03:02:56;95023.78;;;6.68;82.56
10978;BME280;5542;48.272;10.794;2023-04-02T03:05:26;95029.34;;;6.60;82.27
10978;BME280;5542;48.272;10.794;2023-04-02T03:07:55;95025.22;;;6.64;81.92
10978;BME280;5542;48.272;10.794;2023-04-02T03:10:28;95023.78;;;6.68;82.02
10978;BME280;5542;48.272;10.794;2023-04-02T03:13:04;95029.34;;;6.60;82.45
10978;BME280;5542;48.272;10.794;2023-04-02T03:15:37;95029.59;;;6.70;80.95
10978;BME280;5542;48.272;10.794;2023-04-02T03:18:10;95035.50;;;6.65;81.51
10978;BME280;5542;48.272;10.794;2023-04-02T03:20:46;95034.31;;;6.61;81.27
10978;BME280;5542;48.272;10.794;2023-04-02T03:23:18;95036.56;;;6.58;81.64
10978;BME280;5542;48.272;10.794;2023-04-02T03:25:51;95041.38;;;6.61;81.41
10978;BME280;5542;48.272;10.794;2023-04-02T03:28:25;95048.19;;;6.62;81.41
10978;BME280;5542;48.272;10.794;2023-04-02T03:30:57;95049.41;;;6.59;81.16
10978;BME280;5542;48.272;10.794;2023-04-02T03:33:30;95054.56;;;6.66;80.96
10978;BME280;5542;48.272;10.794;2023-04-02T03:36:02;95053.19;;;6.63;80.97
10978;BME280;5542;48.272;10.794;2023-04-02T03:38:34;95057.19;;;6.48;81.97
10978;BME280;5542;48.272;10.794;2023-04-02T03:41:09;95056.38;;;6.65;80.93
10978;BME280;5542;48.272;10.794;2023-04-02T03:43:41;95059.53;;;6.56;81.37
10978;BME280;5542;48.272;10.794;2023-04-02T03:46:17;95051.97;;;6.48;82.32
10978;BME280;5542;48.272;10.794;2023-04-02T03:48:50;95060.88;;;6.40;82.25
10978;BME280;5542;48.272;10.794;2023-04-02T03:51:23;95059.22;;;6.46;81.63
10978;BME280;5542;48.272;10.794;2023-04-02T03:53:52;95065.09;;;6.59;81.02
10978;BME280;5542;48.272;10.794;2023-04-02T03:56:25;95059.81;;;6.48;81.40
10978;BME280;5542;48.272;10.794;2023-04-02T03:59:03;95062.13;;;6.37;82.37
10978;BME280;5542;48.272;10.794;2023-04-02T04:01:34;95058.41;;;6.45;81.65
10978;BME280;5542;48.272;10.794;2023-04-02T04:04:05;95063.88;;;6.62;80.98
10978;BME280;5542;48.272;10.794;2023-04-02T04:06:40;95068.81;;;6.52;80.96
10978;BME280;5542;48.272;10.794;2023-04-02T04:09:09;95071.84;;;6.49;81.35
10978;BME280;5542;48.272;10.794;2023-04-02T04:11:38;95067.34;;;6.37;81.52
10978;BME280;5542;48.272;10.794;2023-04-02T04:14:13;95080.13;;;6.27;82.48
10978;BME280;5542;48.272;10.794;2023-04-02T04:16:46;95077.34;;;6.40;81.60
10978;BME280;5542;48.272;10.794;2023-04-02T04:19:16;95083.75;;;6.45;81.31
10978;BME280;5542;48.272;10.794;2023-04-02T04:21:47;95086.72;;;6.30;81.98
10978;BME280;5542;48.272;10.794;2023-04-02T04:24:17;95095.50;;;6.35;81.56
10978;BME280;5542;48.272;10.794;2023-04-02T04:26:51;95098.19;;;6.29;82.55
10978;BME280;5542;48.272;10.794;2023-04-02T04:29:30;95104.19;;;6.29;82.17
10978;BME280;5542;48.272;10.794;2023-04-02T04:32:13;95100.66;;;6.42;81.93
10978;BME280;5542;48.272;10.794;2023-04-02T04:34:45;95103.06;;;6.44;81.08
10978;BME280;5542;48.272;10.794;2023-04-02T04:37:22;95108.69;;;6.40;81.44
10978;BME280;5542;48.272;10.794;2023-04-02T04:39:53;95115.59;;;6.35;81.59
10978;BME280;5542;48.272;10.794;2023-04-02T04:42:24;95120.44;;;6.31;81.64
10978;BME280;5542;48.272;10.794;2023-04-02T04:44:57;95121.81;;;6.15;82.31
10978;BME280;5542;48.272;10.794;2023-04-02T04:47:28;95124.41;;;6.15;82.69
10978;BME280;5542;48.272;10.794;2023-04-02T04:49:59;95127.72;;;6.29;81.54
10978;BME280;5542;48.272;10.794;2023-04-02T04:52:34;95125.81;;;6.18;82.12
10978;BME280;5542;48.272;10.794;2023-04-02T04:55:02;95138.06;;;6.18;82.56
10978;BME280;5542;48.272;10.794;2023-04-02T04:57:31;95134.59;;;6.24;81.91
10978;BME280;5542;48.272;10.794;2023-04-02T05:00:04;95136.06;;;6.38;81.33
10978;BME280;5542;48.272;10.794;2023-04-02T05:02:37;95143.63;;;6.21;81.53
10978;BME280;5542;48.272;10.794;2023-04-02T05:05:15;95142.81;;;6.27;81.71
10978;BME280;5542;48.272;10.794;2023-04-02T05:07:48;95140.88;;;6.16;82.17
10978;BME280;5542;48.272;10.794;2023-04-02T05:10:19;95150.28;;;5.99;82.80
10978;BME280;5542;48.272;10.794;2023-04-02T05:12:51;95151.63;;;6.08;82.84
10978;BME280;5542;48.272;10.794;2023-04-02T05:15:25;95161.84;;;6.09;82.75
10978;BME280;5542;48.272;10.794;2023-04-02T05:18:11;95154.47;;;6.00;83.25
10978;BME280;5542;48.272;10.794;2023-04-02T05:20:45;95158.13;;;5.99;83.21
10978;BME280;5542;48.272;10.794;2023-04-02T05:23:17;95161.69;;;6.04;82.75
10978;BME280;5542;48.272;10.794;2023-04-02T05:25:51;95163.75;;;5.96;83.83
10978;BME280;5542;48.272;10.794;2023-04-02T05:28:22;95168.97;;;5.96;83.30
10978;BME280;5542;48.272;10.794;2023-04-02T05:30:53;95172.00;;;5.93;83.96
10978;BME280;5542;48.272;10.794;2023-04-02T05:33:23;95166.50;;;6.01;83.54
10978;BME280;5542;48.272;10.794;2023-04-02T05:35:56;95172.91;;;6.05;83.63
10978;BME280;5542;48.272;10.794;2023-04-02T05:38:26;95170.16;;;6.00;83.58
10978;BME280;5542;48.272;10.794;2023-04-02T05:40:59;95178.63;;;5.95;83.77
10978;BME280;5542;48.272;10.794;2023-04-02T05:43:30;95181.91;;;6.09;83.23
10978;BME280;5542;48.272;10.794;2023-04-02T05:46:02;95179.63;;;5.94;84.07
10978;BME280;5542;48.272;10.794;2023-04-02T05:48:36;95191.03;;;6.00;84.34
10978;BME280;5542;48.272;10.794;2023-04-02T05:51:07;95193.63;;;6.00;84.75
10978;BME280;5542;48.272;10.794;2023-04-02T05:53:39;95197.78;;;6.07;83.79
10978;BME280;5542;48.272;10.794;2023-04-02T05:56:14;95188.16;;;6.08;83.68
10978;BME280;5542;48.272;10.794;2023-04-02T05:58:46;95191.75;;;6.07;83.36
10978;BME280;5542;48.272;10.794;2023-04-02T06:01:19;95199.41;;;6.08;83.89
10978;BME280;5542;48.272;10.794;2023-04-02T06:03:52;95203.91;;;6.20;83.14
10978;BME280;5542;48.272;10.794;2023-04-02T06:06:28;95209.03;;;6.08;84.36
10978;BME280;5542;48.272;10.794;2023-04-02T06:09:04;95216.19;;;6.19;84.24
10978;BME280;5542;48.272;10.794;2023-04-02T06:11:38;95208.91;;;6.21;83.60
10978;BME280;5542;48.272;10.794;2023-04-02T06:14:08;95217.38;;;6.16;84.03
10978;BME280;5542;48.272;10.794;2023-04-02T06:16:35;95214.84;;;6.35;83.86
10978;BME280;5542;48.272;10.794;2023-04-02T06:19:07;95227.16;;;6.53;82.07
10978;BME280;5542;48.272;10.794;2023-04-02T06:21:42;95219.66;;;6.38;82.70
10978;BME280;5542;48.272;10.794;2023-04-02T06:24:12;95233.72;;;6.37;83.23
10978;BME280;5542;48.272;10.794;2023-04-02T06:26:43;95230.03;;;6.45;83.32
10978;BME280;5542;48.272;10.794;2023-04-02T06:29:16;95239.47;;;6.46;83.61
10978;BME280;5542;48.272;10.794;2023-04-02T06:31:48;95244.72;;;6.64;82.55
10978;BME280;5542;48.272;10.794;2023-04-02T06:34:18;95242.50;;;6.67;81.99
10978;BME280;5542;48.272;10.794;2023-04-02T06:36:46;95247.16;;;6.65;82.60
10978;BME280;5542;48.272;10.794;2023-04-02T06:39:18;95246.34;;;6.65;83.06
10978;BME280;5542;48.272;10.794;2023-04-02T06:41:53;95255.19;;;6.64;83.08
10978;BME280;5542;48.272;10.794;2023-04-02T06:44:23;95258.41;;;6.66;83.33
10978;BME280;5542;48.272;10.794;2023-04-02T06:46:55;95267.25;;;6.83;82.81
10978;BME280;5542;48.272;10.794;2023-04-02T06:49:25;95269.22;;;6.88;82.62
10978;BME280;5542;48.272;10.794;2023-04-02T06:51:57;95282.09;;;6.89;83.09
10978;BME280;5542;48.272;10.794;2023-04-02T06:54:28;95279.94;;;7.05;81.36
10978;BME280;5542;48.272;10.794;2023-04-02T06:56:55;95281.00;;;6.97;81.63
10978;BME280;5542;48.272;10.794;2023-04-02T06:59:22;95286.03;;;6.99;81.18
10978;BME280;5542;48.272;10.794;2023-04-02T07:01:51;95283.84;;;6.96;81.35
10978;BME280;5542;48.272;10.794;2023-04-02T07:04:19;95287.63;;;7.00;81.42
10978;BME280;5542;48.272;10.794;2023-04-02T07:06:46;95284.72;;;6.89;82.70
10978;BME280;5542;48.272;10.794;2023-04-02T07:09:12;95291.03;;;7.00;82.45
10978;BME280;5542;48.272;10.794;2023-04-02T07:11:40;95285.22;;;7.16;81.12
10978;BME280;5542;48.272;10.794;2023-04-02T07:14:09;95292.28;;;7.16;81.38
10978;BME280;5542;48.272;10.794;2023-04-02T07:16:36;95290.41;;;7.23;80.92
10978;BME280;5542;48.272;10.794;2023-04-02T07:19:03;95293.59;;;7.25;80.66
10978;BME280;5542;48.272;10.794;2023-04-02T07:21:30;95294.25;;;7.21;80.59
10978;BME280;5542;48.272;10.794;2023-04-02T07:23:57;95301.66;;;7.24;80.82
10978;BME280;5542;48.272;10.794;2023-04-02T07:26:25;95295.66;;;7.23;80.73
10978;BME280;5542;48.272;10.794;2023-04-02T07:28:54;95301.91;;;7.22;81.34
10978;BME280;5542;48.272;10.794;2023-04-02T07:31:22;95306.81;;;7.12;82.05
10978;BME280;5542;48.272;10.794;2023-04-02T07:33:50;95303.88;;;7.27;82.21
10978;BME280;5542;48.272;10.794;2023-04-02T07:36:20;95300.78;;;7.48;80.68
10978;BME280;5542;48.272;10.794;2023-04-02T07:38:47;95306.69;;;7.43;80.61
10978;BME280;5542;48.272;10.794;2023-04-02T07:41:14;95311.34;;;7.60;79.75
10978;BME280;5542;48.272;10.794;2023-04-02T07:43:41;95318.75;;;7.44;79.95
10978;BME280;5542;48.272;10.794;2023-04-02T07:46:10;95318.47;;;7.53;80.35
10978;BME280;5542;48.272;10.794;2023-04-02T07:48:39;95318.22;;;7.54;80.42
10978;BME280;5542;48.272;10.794;2023-04-02T07:51:13;95323.59;;;7.59;80.59
10978;BME280;5542;48.272;10.794;2023-04-02T07:53:40;95319.09;;;7.66;79.89
10978;BME280;5542;48.272;10.794;2023-04-02T07:56:06;95318.88;;;7.68;79.35
10978;BME280;5542;48.272;10.794;2023-04-02T07:58:33;95323.31;;;7.86;79.37
10978;BME280;5542;48.272;10.794;2023-04-02T08:01:00;95330.19;;;7.99;78.36
10978;BME280;5542;48.272;10.794;2023-04-02T08:03:29;95330.06;;;7.93;79.79
10978;BME280;5542;48.272;10.794;2023-04-02T08:05:57;95327.75;;;8.15;78.54
10978;BME280;5542;48.272;10.794;2023-04-02T08:08:24;95326.22;;;8.68;76.25
10978;BME280;5542;48.272;10.794;2023-04-02T08:10:50;95318.59;;;9.02;74.12
10978;BME280;5542;48.272;10.794;2023-04-02T08:13:17;95325.19;;;9.39;72.47
10978;BME280;5542;48.272;10.794;2023-04-02T08:15:44;95325.66;;;9.60;71.53
10978;BME280;5542;48.272;10.794;2023-04-02T08:18:11;95336.69;;;9.62;71.67
10978;BME280;5542;48.272;10.794;2023-04-02T08:20:39;95330.75;;;9.78;70.37
10978;BME280;5542;48.272;10.794;2023-04-02T08:23:11;95333.28;;;10.01;70.41
10978;BME280;5542;48.272;10.794;2023-04-02T08:25:39;95335.69;;;10.60;68.79
10978;BME280;5542;48.272;10.794;2023-04-02T08:28:06;95335.38;;;10.73;67.44
10978;BME280;5542;48.272;10.794;2023-04-02T08:30:33;95346.84;;;10.67;67.77
10978;BME280;5542;48.272;10.794;2023-04-02T08:32:59;95349.75;;;10.37;67.05
10978;BME280;5542;48.272;10.794;2023-04-02T08:35:26;95346.72;;;10.17;68.37
10978;BME280;5542;48.272;10.794;2023-04-02T08:37:54;95358.19;;;9.99;69.52
10978;BME280;5542;48.272;10.794;2023-04-02T08:40:24;95357.75;;;9.90;69.44
10978;BME280;5542;48.272;10.794;2023-04-02T08:43:03;95357.75;;;9.90;70.30
10978;BME280;5542;48.272;10.794;2023-04-02T08:45:41;95365.13;;;10.05;68.84
10978;BME280;5542;48.272;10.794;2023-04-02T08:48:13;95367.66;;;10.12;69.60
10978;BME280;5542;48.272;10.794;2023-04-02T08:50:43;95365.66;;;10.19;69.01
10978;BME280;5542;48.272;10.794;2023-04-02T08:53:15;95370.03;;;10.13;68.90
10978;BME280;5542;48.272;10.794;2023-04-02T08:55:45;95372.06;;;10.23;68.59
10978;BME280;5542;48.272;10.794;2023-04-02T08:58:23;95371.53;;;10.49;66.92
10978;BME280;5542;48.272;10.794;2023-04-02T09:00:57;95374.00;;;11.01;64.78
10978;BME280;5542;48.272;10.794;2023-04-02T09:03:27;95374.69;;;11.14;63.89
10978;BME280;5542;48.272;10.794;2023-04-02T09:05:57;95390.38;;;10.92;64.42
10978;BME280;5542;48.272;10.794;2023-04-02T09:08:26;95378.13;;;10.52;65.63
10978;BME280;5542;48.272;10.794;2023-04-02T09:10:59;95377.63;;;10.38;66.93
10978;BME280;5542;48.272;10.794;2023-04-02T09:13:29;95386.22;;;10.34;66.81
10978;BME280;5542;48.272;10.794;2023-04-02T09:16:00;95382.63;;;9.99;68.13
10978;BME280;5542;48.272;10.794;2023-04-02T09:18:29;95390.22;;;9.84;69.45
10978;BME280;5542;48.272;10.794;2023-04-02T09:20:57;95388.44;;;10.01;69.69
10978;BME280;5542;48.272;10.794;2023-04-02T09:23:26;95382.78;;;10.33;68.11
10978;BME280;5542;48.272;10.794;2023-04-02T09:25:53;95383.81;;;10.61;66.30
10978;BME280;5542;48.272;10.794;2023-04-02T09:28:20;95398.09;;;10.65;65.23
10978;BME280;5542;48.272;10.794;2023-04-02T09:30:59;95397.88;;;10.83;64.19
10978;BME280;5542;48.272;10.794;2023-04-02T09:33:42;95400.28;;;10.85;62.68
10978;BME280;5542;48.272;10.794;2023-04-02T09:39:03;95405.94;;;10.93;63.58
10978;BME280;5542;48.272;10.794;2023-04-02T09:41:32;95409.88;;;11.08;62.04
10978;BME280;5542;48.272;10.794;2023-04-02T09:44:17;95412.34;;;10.97;62.95
10978;BME280;5542;48.272;10.794;2023-04-02T09:46:50;95415.97;;;10.96;63.48
10978;BME280;5542;48.272;10.794;2023-04-02T09:49:21;95414.38;;;10.79;63.77
10978;BME280;5542;48.272;10.794;2023-04-02T09:52:06;95414.56;;;11.06;62.55
10978;BME280;5542;48.272;10.794;2023-04-02T09:54:35;95423.94;;;10.85;63.88
10978;BME280;5542;48.272;10.794;2023-04-02T09:57:17;95418.31;;;10.93;63.11
10978;BME280;5542;48.272;10.794;2023-04-02T09:59:45;95421.16;;;10.91;62.59
10978;BME280;5542;48.272;10.794;2023-04-02T10:02:23;95426.91;;;10.88;62.30
10978;BME280;5542;48.272;10.794;2023-04-02T10:04:50;95436.44;;;10.77;63.55
10978;BME280;5542;48.272;10.794;2023-04-02T10:07:30;95435.50;;;10.84;63.06
10978;BME280;5542;48.272;10.794;2023-04-02T10:10:01;95438.84;;;10.79;63.82
10978;BME280;5542;48.272;10.794;2023-04-02T10:12:38;95434.19;;;10.98;62.54
10978;BME280;5542;48.272;10.794;2023-04-02T10:15:13;95432.75;;;11.07;62.50
10978;BME280;5542;48.272;10.794;2023-04-02T10:17:42;95432.69;;;11.36;61.60
10978;BME280;5542;48.272;10.794;2023-04-02T10:20:17;95432.81;;;11.63;61.50
10978;BME280;5542;48.272;10.794;2023-04-02T10:22:45;95437.81;;;11.81;62.63
10978;BME280;5542;48.272;10.794;2023-04-02T10:25:14;95433.03;;;11.95;61.22
10978;BME280;5542;48.272;10.794;2023-04-02T10:27:48;95430.59;;;12.10;58.77
10978;BME280;5542;48.272;10.794;2023-04-02T10:30:21;95442.81;;;12.16;58.98
10978;BME280;5542;48.272;10.794;2023-04-02T10:32:54;95439.06;;;12.12;59.36
10978;BME280;5542;48.272;10.794;2023-04-02T10:35:35;95440.22;;;11.99;59.36
10978;BME280;5542;48.272;10.794;2023-04-02T10:38:29;95444.88;;;11.92;59.96
10978;BME280;5542;48.272;10.794;2023-04-02T10:41:07;95448.28;;;11.76;61.06
10978;BME280;5542;48.272;10.794;2023-04-02T10:46:44;95452.94;;;11.69;61.99
10978;BME280;5542;48.272;10.794;2023-04-02T10:49:20;95452.16;;;11.68;62.12
10978;BME280;5542;48.272;10.794;2023-04-02T10:51:54;95450.38;;;11.74;62.39
10978;BME280;5542;48.272;10.794;2023-04-02T10:54:31;95460.59;;;11.70;60.54
10978;BME280;5542;48.272;10.794;2023-04-02T10:57:04;95456.03;;;11.66;61.06
10978;BME280;5542;48.272;10.794;2023-04-02T10:59:34;95463.97;;;11.83;60.21
10978;BME280;5542;48.272;10.794;2023-04-02T11:02:23;95460.91;;;11.74;59.24
10978;BME280;5542;48.272;10.794;2023-04-02T11:04:52;95457.56;;;11.62;58.83
10978;BME280;5542;48.272;10.794;2023-04-02T11:07:23;95463.94;;;11.66;60.14
10978;BME280;5542;48.272;10.794;2023-04-02T11:09:54;95453.72;;;11.69;60.75
10978;BME280;5542;48.272;10.794;2023-04-02T11:12:29;95465.69;;;11.94;61.03
10978;BME280;5542;48.272;10.794;2023-04-02T11:14:59;95462.34;;;11.98;61.56
10978;BME280;5542;48.272;10.794;2023-04-02T11:17:26;95452.63;;;12.21;59.32
10978;BME280;5542;48.272;10.794;2023-04-02T11:19:52;95459.66;;;12.15;59.93
10978;BME280;5542;48.272;10.794;2023-04-02T11:22:21;95461.81;;;12.40;58.59
10978;BME280;5542;48.272;10.794;2023-04-02T11:24:49;95462.78;;;12.34;59.38
10978;BME280;5542;48.272;10.794;2023-04-02T11:27:25;95462.41;;;12.47;56.50
10978;BME280;5542;48.272;10.794;2023-04-02T11:30:01;95471.44;;;12.51;55.91
10978;BME280;5542;48.272;10.794;2023-04-02T11:32:34;95464.09;;;12.53;56.15
10978;BME280;5542;48.272;10.794;2023-04-02T11:35:25;95464.78;;;12.71;55.17
10978;BME280;5542;48.272;10.794;2023-04-02T11:37:53;95470.38;;;12.52;56.48
10978;BME280;5542;48.272;10.794;2023-04-02T11:40:44;95482.28;;;12.33;58.29
10978;BME280;5542;48.272;10.794;2023-04-02T11:43:50;95483.34;;;12.32;58.85
10978;BME280;5542;48.272;10.794;2023-04-02T11:46:42;95488.50;;;12.44;59.57
10978;BME280;5542;48.272;10.794;2023-04-02T11:49:32;95485.56;;;12.40;60.38
10978;BME280;5542;48.272;10.794;2023-04-02T11:51:59;95489.06;;;12.46;60.59
10978;BME280;5542;48.272;10.794;2023-04-02T11:54:28;95486.28;;;12.57;60.69
10978;BME280;5542;48.272;10.794;2023-04-02T11:57:00;95483.84;;;12.73;59.42
10978;BME280;5542;48.272;10.794;2023-04-02T11:59:38;95485.47;;;12.79;59.85
10978;BME280;5542;48.272;10.794;2023-04-02T12:02:17;95483.84;;;13.00;55.39
10978;BME280;5542;48.272;10.794;2023-04-02T12:05:02;95485.63;;;12.94;56.40
10978;BME280;5542;48.272;10.794;2023-04-02T12:08:01;95489.81;;;12.90;57.01
10978;BME280;5542;48.272;10.794;2023-04-02T12:10:33;95492.91;;;12.82;56.50
10978;BME280;5542;48.272;10.794;2023-04-02T12:13:17;95500.13;;;12.92;56.37
10978;BME280;5542;48.272;10.794;2023-04-02T12:15:45;95498.97;;;12.82;56.23
10978;BME280;5542;48.272;10.794;2023-04-02T12:18:19;95495.88;;;12.91;57.18
10978;BME280;5542;48.272;10.794;2023-04-02T12:20:49;95498.34;;;12.97;57.57
10978;BME280;5542;48.272;10.794;2023-04-02T12:23:18;95494.97;;;13.02;58.06
10978;BME280;5542;48.272;10.794;2023-04-02T12:25:53;95490.31;;;13.14;54.36
10978;BME280;5542;48.272;10.794;2023-04-02T12:28:21;95490.53;;;13.07;55.06
10978;BME280;5542;48.272;10.794;2023-04-02T12:30:50;95488.47;;;13.15;54.93
10978;BME280;5542;48.272;10.794;2023-04-02T12:33:28;95496.59;;;13.08;54.80
10978;BME280;5542;48.272;10.794;2023-04-02T12:35:59;95499.03;;;13.15;54.71
10978;BME280;5542;48.272;10.794;2023-04-02T12:38:29;95503.22;;;13.11;54.73
10978;BME280;5542;48.272;10.794;2023-04-02T12:40:57;95493.56;;;13.21;55.72
10978;BME280;5542;48.272;10.794;2023-04-02T12:43:26;95494.69;;;13.25;55.84
10978;BME280;5542;48.272;10.794;2023-04-02T12:45:56;95499.00;;;13.37;55.56
10978;BME280;5542;48.272;10.794;2023-04-02T12:48:23;95494.31;;;13.44;56.30
10978;BME280;5542;48.272;10.794;2023-04-02T12:50:50;95496.28;;;13.58;53.58
10978;BME280;5542;48.272;10.794;2023-04-02T12:53:20;95497.50;;;13.46;53.46
10978;BME280;5542;48.272;10.794;2023-04-02T12:55:47;95505.97;;;13.48;53.81
10978;BME280;5542;48.272;10.794;2023-04-02T12:58:26;95503.09;;;13.49;53.17
10978;BME280;5542;48.272;10.794;2023-04-02T13:04:00;95510.00;;;13.28;53.06
10978;BME280;5542;48.272;10.794;2023-04-02T13:06:27;95506.63;;;13.33;54.14
10978;BME280;5542;48.272;10.794;2023-04-02T13:08:55;95515.81;;;13.25;54.81
10978;BME280;5542;48.272;10.794;2023-04-02T13:11:32;95511.25;;;13.21;55.07
10978;BME280;5542;48.272;10.794;2023-04-02T13:14:01;95509.47;;;13.26;53.55
10978;BME280;5542;48.272;10.794;2023-04-02T13:16:32;95514.75;;;13.26;55.05
10978;BME280;5542;48.272;10.794;2023-04-02T13:19:20;95521.75;;;13.16;55.76
10978;BME280;5542;48.272;10.794;2023-04-02T13:21:48;95511.88;;;13.28;55.30
10978;BME280;5542;48.272;10.794;2023-04-02T13:24:17;95517.16;;;13.28;54.77
10978;BME280;5542;48.272;10.794;2023-04-02T13:26:44;95513.56;;;13.39;54.75
10978;BME280;5542;48.272;10.794;2023-04-02T13:29:18;95521.00;;;13.47;51.74
10978;BME280;5542;48.272;10.794;2023-04-02T13:31:46;95527.53;;;13.35;52.12
10978;BME280;5542;48.272;10.794;2023-04-02T13:34:14;95539.38;;;13.32;52.36
10978;BME280;5542;48.272;10.794;2023-04-02T13:36:41;95527.31;;;13.41;51.43
10978;BME280;5542;48.272;10.794;2023-04-02T13:39:07;95531.75;;;13.36;51.61
10978;BME280;5542;48.272;10.794;2023-04-02T13:41:39;95537.56;;;13.11;52.64
10978;BME280;5542;48.272;10.794;2023-04-02T13:44:10;95538.16;;;13.18;52.65